PAA17 KJFK-RJAA
Flight info
| Callsign | PAA17 |
|---|---|
| Flight time | N/A |
| Altitude | 32000 |
| Route | HAAYS DCT HUO DCT HNK DCT SYR DCT TULEG DCT BOBSU DCT 50N083W 55N090W 60N100W/N0491F340 63N110W 65N120W 66N130W/N0497F360 DCT GOATS DCT BTT NCA30 OME/N0490F380 R338 NATES/N0501F390 R220 NYMPH/N0499F400 R220 NIPPI/N0487F410 R220 NANAC/N0485F430 Y810 OLDIV Y809 SUPOK |
| Aircraft | B742/H-SDFHIRWXY/L |
Departure
| Time | 2026-05-07 20:55 |
|---|---|
| Airport | John F. Kennedy International Airport (KJFK) |
Arrival
| Time | N/A |
|---|---|
| Airport | Narita International Airport (RJAA) |
| Time | Latitude | Longitude | Altitude | Speed | Heading |
|---|---|---|---|---|---|
| 2026-05-07 20:28 | 40.63985 | -73.78243 | 17 ft | 0 kts | 61° |
| 2026-05-07 20:40 | 40.63982 | -73.78251 | 17 ft | 2 kts | 61° |
| 2026-05-07 20:40 | 40.63975 | -73.78268 | 17 ft | 2 kts | 61° |
| 2026-05-07 20:40 | 40.63967 | -73.78285 | 17 ft | 2 kts | 61° |
| 2026-05-07 20:41 | 40.63960 | -73.78303 | 17 ft | 2 kts | 69° |
| 2026-05-07 20:41 | 40.63958 | -73.78322 | 17 ft | 2 kts | 98° |
| 2026-05-07 20:41 | 40.63963 | -73.78341 | 17 ft | 2 kts | 122° |
| 2026-05-07 20:41 | 40.63972 | -73.78355 | 17 ft | 1 kts | 146° |
| 2026-05-07 20:42 | 40.63978 | -73.78360 | 17 ft | 1 kts | 151° |
| 2026-05-07 20:42 | 40.63982 | -73.78364 | 17 ft | 0 kts | 149° |
| 2026-05-07 20:42 | 40.63987 | -73.78368 | 17 ft | 1 kts | 149° |
| 2026-05-07 20:42 | 40.63990 | -73.78372 | 17 ft | 0 kts | 149° |
| 2026-05-07 20:45 | 40.63990 | -73.78371 | 17 ft | 0 kts | 150° |
| 2026-05-07 20:45 | 40.63981 | -73.78365 | 17 ft | 2 kts | 147° |
| 2026-05-07 20:46 | 40.63960 | -73.78347 | 17 ft | 4 kts | 147° |
| 2026-05-07 20:46 | 40.63936 | -73.78330 | 17 ft | 6 kts | 156° |
| 2026-05-07 20:46 | 40.63894 | -73.78310 | 17 ft | 6 kts | 162° |
| 2026-05-07 20:46 | 40.63852 | -73.78297 | 17 ft | 6 kts | 170° |
| 2026-05-07 20:47 | 40.63810 | -73.78288 | 17 ft | 6 kts | 172° |
| 2026-05-07 20:47 | 40.63769 | -73.78281 | 17 ft | 5 kts | 172° |
| 2026-05-07 20:47 | 40.63729 | -73.78274 | 17 ft | 5 kts | 172° |
| 2026-05-07 20:47 | 40.63692 | -73.78267 | 17 ft | 5 kts | 172° |
| 2026-05-07 20:48 | 40.63655 | -73.78261 | 16 ft | 5 kts | 173° |
| 2026-05-07 20:48 | 40.63611 | -73.78256 | 16 ft | 6 kts | 179° |
| 2026-05-07 20:48 | 40.63562 | -73.78271 | 15 ft | 7 kts | 195° |
| 2026-05-07 20:48 | 40.63512 | -73.78254 | 14 ft | 8 kts | 137° |
| 2026-05-07 20:49 | 40.63479 | -73.78194 | 13 ft | 8 kts | 122° |
| 2026-05-07 20:49 | 40.63450 | -73.78131 | 13 ft | 7 kts | 120° |
| 2026-05-07 20:49 | 40.63423 | -73.78070 | 13 ft | 7 kts | 120° |
| 2026-05-07 20:49 | 40.63396 | -73.78010 | 13 ft | 7 kts | 120° |
| 2026-05-07 20:50 | 40.63369 | -73.77944 | 13 ft | 8 kts | 118° |
| 2026-05-07 20:50 | 40.63338 | -73.77869 | 13 ft | 9 kts | 120° |
| 2026-05-07 20:50 | 40.63302 | -73.77788 | 13 ft | 10 kts | 120° |
| 2026-05-07 20:50 | 40.63260 | -73.77696 | 13 ft | 12 kts | 121° |
| 2026-05-07 20:51 | 40.63214 | -73.77597 | 13 ft | 13 kts | 121° |
| 2026-05-07 20:51 | 40.63165 | -73.77489 | 13 ft | 14 kts | 120° |
| 2026-05-07 20:51 | 40.63113 | -73.77373 | 13 ft | 15 kts | 121° |
| 2026-05-07 20:51 | 40.63059 | -73.77255 | 13 ft | 13 kts | 120° |
| 2026-05-07 20:52 | 40.63020 | -73.77190 | 13 ft | 7 kts | 157° |
| 2026-05-07 20:52 | 40.62980 | -73.77197 | 13 ft | 5 kts | 208° |
| 2026-05-07 20:52 | 40.62947 | -73.77222 | 13 ft | 5 kts | 210° |
| 2026-05-07 20:52 | 40.62911 | -73.77251 | 13 ft | 6 kts | 210° |
| 2026-05-07 20:53 | 40.62871 | -73.77286 | 13 ft | 6 kts | 227° |
| 2026-05-07 20:53 | 40.62866 | -73.77323 | 13 ft | 3 kts | 279° |
| 2026-05-07 20:53 | 40.62869 | -73.77333 | 13 ft | 0 kts | 294° |
| 2026-05-07 20:53 | 40.62871 | -73.77338 | 13 ft | 0 kts | 301° |
| 2026-05-07 20:54 | 40.62872 | -73.77341 | 13 ft | 0 kts | 301° |
| 2026-05-07 20:54 | 40.62954 | -73.77518 | 13 ft | 57 kts | 301° |
| 2026-05-07 20:54 | 40.63281 | -73.78235 | 14 ft | 124 kts | 301° |
| 2026-05-07 20:55 | 40.63828 | -73.79440 | 18 ft | 179 kts | 302° |
| 2026-05-07 20:55 | 40.64457 | -73.80952 | 451 ft | 189 kts | 302° |
| 2026-05-07 20:55 | 40.65002 | -73.82333 | 1062 ft | 188 kts | 301° |
| 2026-05-07 20:55 | 40.65626 | -73.83887 | 1618 ft | 196 kts | 304° |
| 2026-05-07 20:56 | 40.66524 | -73.85238 | 2218 ft | 197 kts | 329° |
| 2026-05-07 20:56 | 40.67829 | -73.85767 | 2792 ft | 200 kts | 354° |
| 2026-05-07 20:56 | 40.69184 | -73.85946 | 3488 ft | 195 kts | 351° |
| 2026-05-07 20:56 | 40.70524 | -73.86297 | 4020 ft | 198 kts | 340° |
| 2026-05-07 20:57 | 40.71788 | -73.87030 | 4525 ft | 200 kts | 329° |
| 2026-05-07 20:57 | 40.72980 | -73.87980 | 5074 ft | 201 kts | 326° |
| 2026-05-07 20:57 | 40.74132 | -73.89009 | 5661 ft | 200 kts | 323° |
| 2026-05-07 20:57 | 40.75251 | -73.90063 | 6260 ft | 198 kts | 321° |
| 2026-05-07 20:58 | 40.76354 | -73.91127 | 6826 ft | 197 kts | 319° |
| 2026-05-07 20:58 | 40.77451 | -73.92200 | 7364 ft | 196 kts | 318° |
| 2026-05-07 20:58 | 40.78593 | -73.93330 | 7501 ft | 217 kts | 317° |
| 2026-05-07 20:58 | 40.79866 | -73.94594 | 7537 ft | 242 kts | 318° |
| 2026-05-07 20:59 | 40.81275 | -73.95991 | 7707 ft | 263 kts | 319° |
| 2026-05-07 20:59 | 40.82778 | -73.97472 | 8295 ft | 268 kts | 317° |
| 2026-05-07 20:59 | 40.84259 | -73.98934 | 8882 ft | 271 kts | 317° |
| 2026-05-07 20:59 | 40.85777 | -74.00436 | 9480 ft | 272 kts | 316° |
| 2026-05-07 21:00 | 40.87301 | -74.01946 | 10076 ft | 273 kts | 315° |
| 2026-05-07 21:00 | 40.88806 | -74.03441 | 10653 ft | 274 kts | 315° |
| 2026-05-07 21:00 | 40.90362 | -74.04992 | 10868 ft | 287 kts | 315° |
| 2026-05-07 21:00 | 40.91980 | -74.06612 | 10889 ft | 305 kts | 316° |
| 2026-05-07 21:01 | 40.93722 | -74.08352 | 10904 ft | 323 kts | 317° |
| 2026-05-07 21:01 | 40.95560 | -74.10177 | 11226 ft | 329 kts | 318° |
| 2026-05-07 21:01 | 40.97393 | -74.11990 | 11797 ft | 330 kts | 317° |
| 2026-05-07 21:01 | 40.99221 | -74.13805 | 12256 ft | 333 kts | 317° |
| 2026-05-07 21:02 | 41.00947 | -74.15525 | 12648 ft | 336 kts | 316° |
| 2026-05-07 21:02 | 41.02500 | -74.17073 | 13051 ft | 337 kts | 316° |
| 2026-05-07 21:02 | 41.06363 | -74.20930 | 13985 ft | 340 kts | 315° |
| 2026-05-07 21:03 | 41.08269 | -74.22835 | 14397 ft | 342 kts | 315° |
| 2026-05-07 21:03 | 41.10158 | -74.24727 | 14797 ft | 345 kts | 314° |
| 2026-05-07 21:03 | 41.12074 | -74.26647 | 15230 ft | 345 kts | 315° |
| 2026-05-07 21:03 | 41.14018 | -74.28599 | 15585 ft | 348 kts | 314° |
| 2026-05-07 21:04 | 41.15957 | -74.30545 | 15939 ft | 351 kts | 314° |
| 2026-05-07 21:04 | 41.17906 | -74.32501 | 16301 ft | 352 kts | 314° |
| 2026-05-07 21:04 | 41.19846 | -74.34450 | 16636 ft | 355 kts | 314° |
| 2026-05-07 21:04 | 41.21844 | -74.36458 | 16978 ft | 357 kts | 314° |
| 2026-05-07 21:05 | 41.23827 | -74.38452 | 17312 ft | 360 kts | 313° |
| 2026-05-07 21:05 | 41.25837 | -74.40475 | 17635 ft | 363 kts | 314° |
| 2026-05-07 21:05 | 41.27858 | -74.42516 | 17869 ft | 368 kts | 314° |
| 2026-05-07 21:05 | 41.29901 | -74.44574 | 18233 ft | 370 kts | 314° |
| 2026-05-07 21:06 | 41.31874 | -74.46748 | 18577 ft | 366 kts | 309° |
| 2026-05-07 21:06 | 41.33685 | -74.49062 | 18957 ft | 365 kts | 306° |
| 2026-05-07 21:06 | 41.35482 | -74.51496 | 19338 ft | 365 kts | 305° |
| 2026-05-07 21:06 | 41.37233 | -74.53914 | 19729 ft | 366 kts | 305° |
| 2026-05-07 21:07 | 41.38994 | -74.56358 | 20120 ft | 367 kts | 305° |
| 2026-05-07 21:07 | 41.40815 | -74.58768 | 20469 ft | 372 kts | 308° |
| 2026-05-07 21:07 | 41.42772 | -74.61058 | 20839 ft | 376 kts | 310° |
| 2026-05-07 21:07 | 41.44791 | -74.63303 | 21237 ft | 378 kts | 311° |
| 2026-05-07 21:08 | 41.46796 | -74.65499 | 21656 ft | 378 kts | 310° |
| 2026-05-07 21:08 | 41.48833 | -74.67756 | 22061 ft | 379 kts | 310° |
| 2026-05-07 21:08 | 41.50846 | -74.69994 | 22434 ft | 381 kts | 310° |
| 2026-05-07 21:08 | 41.52871 | -74.72237 | 22810 ft | 382 kts | 310° |
| 2026-05-07 21:09 | 41.54930 | -74.74511 | 23183 ft | 384 kts | 310° |
| 2026-05-07 21:09 | 41.56982 | -74.76774 | 23525 ft | 386 kts | 310° |
| 2026-05-07 21:09 | 41.59078 | -74.79087 | 23805 ft | 390 kts | 310° |
| 2026-05-07 21:09 | 41.61165 | -74.81388 | 24100 ft | 393 kts | 310° |
| 2026-05-07 21:10 | 41.63279 | -74.83718 | 24427 ft | 395 kts | 310° |
| 2026-05-07 21:10 | 41.65372 | -74.86028 | 24728 ft | 397 kts | 310° |
| 2026-05-07 21:10 | 41.67503 | -74.88381 | 25029 ft | 398 kts | 310° |
| 2026-05-07 21:10 | 41.69673 | -74.90781 | 25328 ft | 400 kts | 310° |
| 2026-05-07 21:11 | 41.71821 | -74.93156 | 25617 ft | 402 kts | 310° |
| 2026-05-07 21:11 | 41.73952 | -74.95515 | 25897 ft | 404 kts | 310° |
| 2026-05-07 21:11 | 41.78309 | -75.00345 | 26506 ft | 407 kts | 310° |
| 2026-05-07 21:12 | 41.80495 | -75.02773 | 26759 ft | 409 kts | 310° |
| 2026-05-07 21:12 | 41.82687 | -75.05208 | 27038 ft | 410 kts | 310° |
| 2026-05-07 21:12 | 41.84876 | -75.07643 | 27319 ft | 411 kts | 310° |
| 2026-05-07 21:12 | 41.87069 | -75.10084 | 27579 ft | 412 kts | 310° |
| 2026-05-07 21:13 | 41.89293 | -75.12561 | 27830 ft | 413 kts | 310° |
| 2026-05-07 21:13 | 41.91495 | -75.15018 | 28045 ft | 415 kts | 310° |
| 2026-05-07 21:13 | 41.93720 | -75.17501 | 28252 ft | 416 kts | 310° |
| 2026-05-07 21:13 | 41.95981 | -75.20027 | 28455 ft | 418 kts | 310° |
| 2026-05-07 21:14 | 41.98206 | -75.22516 | 28647 ft | 419 kts | 310° |
| 2026-05-07 21:14 | 42.00455 | -75.25033 | 28832 ft | 420 kts | 310° |
| 2026-05-07 21:14 | 42.02688 | -75.27533 | 29099 ft | 419 kts | 310° |
| 2026-05-07 21:14 | 42.04949 | -75.30035 | 29237 ft | 424 kts | 313° |
| 2026-05-07 21:15 | 42.07388 | -75.32327 | 29393 ft | 432 kts | 317° |
| 2026-05-07 21:15 | 42.09935 | -75.34465 | 29554 ft | 435 kts | 319° |
| 2026-05-07 21:15 | 42.12564 | -75.36582 | 29699 ft | 437 kts | 319° |
| 2026-05-07 21:15 | 42.15187 | -75.38666 | 29838 ft | 439 kts | 319° |
| 2026-05-07 21:16 | 42.17799 | -75.40736 | 29979 ft | 439 kts | 319° |
| 2026-05-07 21:16 | 42.20435 | -75.42828 | 30105 ft | 440 kts | 319° |
| 2026-05-07 21:16 | 42.23066 | -75.44919 | 30220 ft | 441 kts | 319° |
| 2026-05-07 21:16 | 42.25721 | -75.47031 | 30329 ft | 442 kts | 319° |
| 2026-05-07 21:17 | 42.28355 | -75.49128 | 30561 ft | 439 kts | 319° |
| 2026-05-07 21:17 | 42.30932 | -75.51183 | 30635 ft | 441 kts | 318° |
| 2026-05-07 21:17 | 42.36251 | -75.55438 | 30796 ft | 442 kts | 319° |
| 2026-05-07 21:18 | 42.41542 | -75.59679 | 30947 ft | 443 kts | 319° |
| 2026-05-07 21:18 | 42.46877 | -75.63963 | 31084 ft | 445 kts | 319° |
| 2026-05-07 21:19 | 42.52175 | -75.68265 | 31271 ft | 444 kts | 317° |
| 2026-05-07 21:19 | 42.57478 | -75.72605 | 31414 ft | 446 kts | 318° |
| 2026-05-07 21:20 | 42.62805 | -75.76932 | 31690 ft | 444 kts | 318° |
| 2026-05-07 21:20 | 42.68088 | -75.81214 | 31783 ft | 446 kts | 318° |
| 2026-05-07 21:21 | 42.73453 | -75.85568 | 31898 ft | 447 kts | 318° |
| 2026-05-07 21:21 | 42.78783 | -75.89899 | 32036 ft | 447 kts | 318° |
| 2026-05-07 21:22 | 42.84117 | -75.94244 | 32115 ft | 449 kts | 318° |
| 2026-05-07 21:22 | 42.89480 | -75.98624 | 32043 ft | 454 kts | 318° |
| 2026-05-07 21:23 | 42.94946 | -76.03096 | 32008 ft | 459 kts | 318° |
| 2026-05-07 21:23 | 43.00435 | -76.07594 | 31990 ft | 463 kts | 318° |
| 2026-05-07 21:24 | 43.05986 | -76.12156 | 31903 ft | 470 kts | 318° |
| 2026-05-07 21:24 | 43.11562 | -76.16738 | 31906 ft | 468 kts | 318° |
| 2026-05-07 21:25 | 43.17104 | -76.21368 | 31907 ft | 459 kts | 317° |
| 2026-05-07 21:25 | 43.22435 | -76.26093 | 31912 ft | 458 kts | 316° |
| 2026-05-07 21:26 | 43.27787 | -76.30890 | 31919 ft | 458 kts | 316° |
| 2026-05-07 21:26 | 43.33126 | -76.35677 | 31919 ft | 460 kts | 316° |
| 2026-05-07 21:27 | 43.38508 | -76.40502 | 31919 ft | 460 kts | 316° |
| 2026-05-07 21:27 | 43.43842 | -76.45291 | 31919 ft | 459 kts | 316° |
| 2026-05-07 21:28 | 43.49178 | -76.50095 | 31919 ft | 459 kts | 316° |
| 2026-05-07 21:28 | 43.54540 | -76.54933 | 31919 ft | 459 kts | 316° |
| 2026-05-07 21:29 | 43.59891 | -76.59772 | 31919 ft | 459 kts | 316° |
| 2026-05-07 21:29 | 43.65216 | -76.64597 | 31919 ft | 459 kts | 316° |
| 2026-05-07 21:30 | 43.70495 | -76.69448 | 31934 ft | 458 kts | 315° |
| 2026-05-07 21:30 | 43.75830 | -76.74352 | 31934 ft | 458 kts | 316° |
| 2026-05-07 21:31 | 43.81186 | -76.79226 | 31935 ft | 462 kts | 317° |
| 2026-05-07 21:31 | 43.86566 | -76.84113 | 31936 ft | 467 kts | 317° |
| 2026-05-07 21:32 | 43.92040 | -76.89087 | 31935 ft | 469 kts | 317° |
| 2026-05-07 21:32 | 43.97509 | -76.94064 | 31934 ft | 468 kts | 317° |
| 2026-05-07 21:33 | 44.02919 | -76.98999 | 31935 ft | 467 kts | 317° |
| 2026-05-07 21:33 | 44.08354 | -77.03974 | 31935 ft | 467 kts | 317° |
| 2026-05-07 21:34 | 44.13784 | -77.08956 | 31935 ft | 467 kts | 317° |
| 2026-05-07 21:34 | 44.19206 | -77.13943 | 31906 ft | 468 kts | 317° |
| 2026-05-07 21:35 | 44.24595 | -77.18907 | 31899 ft | 467 kts | 317° |
| 2026-05-07 21:35 | 44.29995 | -77.23894 | 31898 ft | 466 kts | 318° |
| 2026-05-07 21:36 | 44.35448 | -77.28945 | 31900 ft | 470 kts | 319° |
| 2026-05-07 21:36 | 44.40922 | -77.34022 | 31900 ft | 474 kts | 319° |
| 2026-05-07 21:37 | 44.46369 | -77.39082 | 31899 ft | 474 kts | 319° |
| 2026-05-07 21:37 | 44.51841 | -77.44175 | 31898 ft | 472 kts | 319° |
| 2026-05-07 21:38 | 44.57277 | -77.49252 | 31899 ft | 472 kts | 319° |
| 2026-05-07 21:38 | 44.62737 | -77.54363 | 31899 ft | 472 kts | 319° |
| 2026-05-07 21:39 | 44.68182 | -77.59470 | 31887 ft | 473 kts | 319° |
| 2026-05-07 21:39 | 44.73640 | -77.64601 | 31881 ft | 472 kts | 319° |
| 2026-05-07 21:40 | 44.78992 | -77.69707 | 31881 ft | 471 kts | 319° |
| 2026-05-07 21:40 | 44.84434 | -77.74920 | 31883 ft | 474 kts | 319° |
| 2026-05-07 21:41 | 44.89885 | -77.80106 | 31882 ft | 476 kts | 320° |
| 2026-05-07 21:41 | 44.95383 | -77.85324 | 31881 ft | 476 kts | 320° |
| 2026-05-07 21:42 | 45.00820 | -77.90494 | 31881 ft | 475 kts | 320° |
| 2026-05-07 21:42 | 45.06315 | -77.95733 | 31882 ft | 475 kts | 320° |
| 2026-05-07 21:43 | 45.11752 | -78.00929 | 31881 ft | 475 kts | 320° |
| 2026-05-07 21:43 | 45.17221 | -78.06171 | 31882 ft | 475 kts | 320° |
| 2026-05-07 21:44 | 45.22684 | -78.11418 | 31882 ft | 475 kts | 320° |
| 2026-05-07 21:44 | 45.28138 | -78.16668 | 31887 ft | 474 kts | 321° |
| 2026-05-07 21:45 | 45.33572 | -78.21911 | 31891 ft | 476 kts | 321° |
| 2026-05-07 21:45 | 45.39061 | -78.27219 | 31891 ft | 477 kts | 322° |
| 2026-05-07 21:46 | 45.44512 | -78.32501 | 31890 ft | 476 kts | 322° |
| 2026-05-07 21:46 | 45.49997 | -78.37828 | 31890 ft | 475 kts | 322° |
| 2026-05-07 21:47 | 45.55485 | -78.43063 | 31891 ft | 476 kts | 323° |
| 2026-05-07 21:47 | 45.61042 | -78.48210 | 31890 ft | 477 kts | 323° |
| 2026-05-07 21:48 | 45.66610 | -78.53365 | 31890 ft | 477 kts | 323° |
| 2026-05-07 21:48 | 45.72164 | -78.58525 | 31890 ft | 477 kts | 323° |
| 2026-05-07 21:49 | 45.77700 | -78.63686 | 31890 ft | 476 kts | 324° |
| 2026-05-07 21:49 | 45.83217 | -78.68890 | 31891 ft | 475 kts | 323° |
| 2026-05-07 21:50 | 45.88731 | -78.74136 | 31891 ft | 476 kts | 323° |
| 2026-05-07 21:50 | 45.94265 | -78.79361 | 31891 ft | 475 kts | 323° |
| 2026-05-07 21:51 | 45.99730 | -78.84512 | 31863 ft | 476 kts | 323° |
| 2026-05-07 21:51 | 46.05271 | -78.89740 | 31859 ft | 475 kts | 323° |
| 2026-05-07 21:52 | 46.10801 | -78.94970 | 31859 ft | 475 kts | 323° |
| 2026-05-07 21:52 | 46.16268 | -79.00157 | 31859 ft | 475 kts | 323° |
| 2026-05-07 21:53 | 46.21415 | -79.05051 | 31859 ft | 475 kts | 323° |